createdAt,value
2022-12-14T00:02:04.326Z,6.53
2022-12-14T00:04:32.904Z,2.73
2022-12-14T00:07:01.129Z,3.10
2022-12-14T00:09:29.287Z,4.60
2022-12-14T00:11:57.624Z,12.03
2022-12-14T00:14:27.336Z,6.67
2022-12-14T00:16:55.681Z,3.17
2022-12-14T00:19:23.908Z,2.40
2022-12-14T00:21:53.120Z,0.97
2022-12-14T00:24:21.587Z,0.97
2022-12-14T00:26:50.594Z,1.67
2022-12-14T00:29:18.899Z,1.80
2022-12-14T00:31:48.870Z,0.80
2022-12-14T00:34:18.507Z,1.50
2022-12-14T00:36:46.679Z,1.10
2022-12-14T00:39:14.904Z,1.17
2022-12-14T00:41:44.446Z,2.13
2022-12-14T00:44:12.718Z,0.87
2022-12-14T00:46:40.936Z,1.20
2022-12-14T00:49:11.409Z,0.90
2022-12-14T00:51:40.000Z,1.73
2022-12-14T00:54:08.563Z,1.40
2022-12-14T00:56:36.831Z,1.07
2022-12-14T00:59:05.153Z,1.13
2022-12-14T01:01:33.462Z,1.43
2022-12-14T01:04:15.612Z,1.13
2022-12-14T01:06:45.612Z,1.27
2022-12-14T01:09:14.111Z,1.60
2022-12-14T01:11:42.596Z,1.33
2022-12-14T01:14:13.090Z,1.37
2022-12-14T01:16:41.608Z,1.20
2022-12-14T01:19:09.870Z,1.10
2022-12-14T01:21:38.188Z,1.27
2022-12-14T01:24:09.435Z,1.00
2022-12-14T01:26:39.903Z,1.07
2022-12-14T01:29:08.877Z,1.00
2022-12-14T01:31:39.241Z,1.53
2022-12-14T01:34:08.315Z,0.70
2022-12-14T01:36:37.582Z,1.10
2022-12-14T01:39:13.859Z,0.90
2022-12-14T01:41:44.870Z,0.70
2022-12-14T01:45:04.819Z,1.37
2022-12-14T01:47:42.095Z,1.00
2022-12-14T01:50:15.704Z,0.87
2022-12-14T01:52:46.291Z,1.47
2022-12-14T01:55:22.847Z,1.37
2022-12-14T01:57:56.139Z,1.00
2022-12-14T02:00:24.669Z,1.20
2022-12-14T02:02:59.444Z,1.63
2022-12-14T02:05:30.341Z,1.93
2022-12-14T02:07:58.971Z,1.90
2022-12-14T02:10:31.687Z,1.40
2022-12-14T02:13:05.529Z,1.43
2022-12-14T02:15:35.037Z,1.37
2022-12-14T02:18:07.242Z,1.70
2022-12-14T02:20:42.579Z,1.70
2022-12-14T02:23:38.057Z,2.03
2022-12-14T02:26:38.852Z,1.50
2022-12-14T02:29:34.065Z,2.47
2022-12-14T02:32:17.205Z,3.87
2022-12-14T02:34:58.118Z,2.70
2022-12-14T02:37:35.912Z,2.40
2022-12-14T02:40:19.865Z,2.67
2022-12-14T02:42:58.640Z,4.33
2022-12-14T02:45:37.254Z,3.87
2022-12-14T02:48:10.478Z,2.77
2022-12-14T02:50:45.147Z,4.33
2022-12-14T02:53:21.754Z,4.40
2022-12-14T02:55:52.488Z,3.67
2022-12-14T02:58:24.902Z,5.70
2022-12-14T03:00:56.596Z,4.77
2022-12-14T03:03:26.424Z,6.00
2022-12-14T03:05:59.156Z,5.40
2022-12-14T03:08:29.360Z,5.47
2022-12-14T03:11:01.322Z,5.00
2022-12-14T03:13:35.278Z,4.27
2022-12-14T03:16:10.731Z,4.23
2022-12-14T03:18:44.063Z,5.40
2022-12-14T03:21:17.171Z,4.67
2022-12-14T03:23:48.927Z,6.30
2022-12-14T03:26:23.057Z,7.13
2022-12-14T03:28:55.204Z,6.03
2022-12-14T03:31:31.633Z,7.00
2022-12-14T03:34:02.511Z,5.13
2022-12-14T03:36:38.662Z,7.00
2022-12-14T03:39:11.244Z,5.40
2022-12-14T03:41:48.734Z,6.03
2022-12-14T03:44:31.911Z,5.17
2022-12-14T03:47:08.924Z,5.90
2022-12-14T03:49:52.233Z,9.00
2022-12-14T03:52:27.218Z,4.90
2022-12-14T03:55:05.477Z,5.00
2022-12-14T03:57:47.684Z,4.20
2022-12-14T04:00:19.974Z,4.10
2022-12-14T04:02:54.422Z,8.33
2022-12-14T04:05:31.780Z,3.80
2022-12-14T04:08:06.600Z,3.80
2022-12-14T04:10:55.328Z,4.10
2022-12-14T04:13:49.134Z,3.83
2022-12-14T04:16:42.072Z,4.20
2022-12-14T04:19:17.689Z,5.63
2022-12-14T04:21:50.727Z,4.20
2022-12-14T04:24:40.278Z,4.03
2022-12-14T04:27:13.833Z,4.70
2022-12-14T04:29:57.357Z,3.97
2022-12-14T04:32:31.373Z,5.03
2022-12-14T04:35:05.361Z,4.13
2022-12-14T04:37:38.036Z,3.63
2022-12-14T04:40:10.513Z,4.57
2022-12-14T04:42:45.558Z,2.70
2022-12-14T04:45:19.407Z,3.37
2022-12-14T04:47:55.303Z,5.07
2022-12-14T04:50:29.796Z,2.60
2022-12-14T04:53:04.965Z,3.40
2022-12-14T04:55:40.739Z,4.73
2022-12-14T04:58:15.209Z,3.03
2022-12-14T05:01:12.549Z,4.80
2022-12-14T05:03:54.047Z,4.57
2022-12-14T05:06:28.022Z,3.43
2022-12-14T05:09:14.122Z,2.97
2022-12-14T05:11:53.490Z,3.43
2022-12-14T05:14:29.747Z,3.30
2022-12-14T05:17:01.285Z,2.67
2022-12-14T05:19:31.848Z,4.10
2022-12-14T05:22:07.121Z,3.50
2022-12-14T05:24:35.471Z,4.17
2022-12-14T05:27:03.776Z,4.07
2022-12-14T05:29:32.121Z,5.37
2022-12-14T05:32:00.966Z,6.23
2022-12-14T05:34:29.488Z,4.57
2022-12-14T05:36:58.238Z,4.50
2022-12-14T05:39:27.953Z,5.03
2022-12-14T05:41:56.256Z,3.97
2022-12-14T05:44:24.623Z,4.13
2022-12-14T05:46:52.861Z,5.03
2022-12-14T05:49:22.106Z,6.87
2022-12-14T05:51:50.950Z,4.77
2022-12-14T05:54:19.142Z,6.10
2022-12-14T05:56:48.839Z,4.43
2022-12-14T05:59:17.856Z,4.10
2022-12-14T06:01:49.168Z,3.73
2022-12-14T06:04:19.192Z,4.37
2022-12-14T06:06:47.739Z,4.80
2022-12-14T06:09:17.354Z,3.97
2022-12-14T06:11:46.775Z,5.17
2022-12-14T06:14:16.400Z,5.93
2022-12-14T06:16:46.715Z,7.73
2022-12-14T06:19:16.725Z,4.97
2022-12-14T06:21:45.336Z,5.03
2022-12-14T06:24:14.554Z,6.43
2022-12-14T06:26:43.099Z,5.53
2022-12-14T06:29:18.199Z,6.57
2022-12-14T06:31:49.463Z,4.53
2022-12-14T06:34:19.225Z,4.67
2022-12-14T06:36:48.781Z,4.70
2022-12-14T06:39:18.076Z,4.43
2022-12-14T06:41:51.066Z,5.80
2022-12-14T06:44:21.020Z,4.33
2022-12-14T06:46:49.328Z,3.50
2022-12-14T06:49:18.229Z,3.17
2022-12-14T06:51:46.576Z,3.27
2022-12-14T06:54:16.103Z,3.23
2022-12-14T06:56:45.276Z,3.33
2022-12-14T06:59:14.932Z,3.37
2022-12-14T07:01:46.123Z,2.87
2022-12-14T07:04:21.368Z,4.33
2022-12-14T07:06:49.988Z,2.77
2022-12-14T07:09:18.364Z,3.80
2022-12-14T07:11:46.745Z,5.00
2022-12-14T07:14:17.911Z,4.90
2022-12-14T07:16:49.181Z,5.90
2022-12-14T07:19:18.560Z,6.00
2022-12-14T07:21:47.015Z,6.43
2022-12-14T07:24:15.703Z,6.03
2022-12-14T07:26:44.005Z,5.80
2022-12-14T07:29:14.776Z,6.33
2022-12-14T07:31:43.057Z,8.07
2022-12-14T07:34:14.591Z,9.17
2022-12-14T07:36:43.573Z,8.97
2022-12-14T07:39:13.752Z,9.20
2022-12-14T07:41:42.627Z,9.20
2022-12-14T07:44:11.438Z,13.80
2022-12-14T07:46:40.457Z,7.67
2022-12-14T07:49:09.056Z,8.93
2022-12-14T07:51:42.407Z,9.03
2022-12-14T07:54:12.151Z,10.23
2022-12-14T07:56:44.011Z,8.17
2022-12-14T07:59:16.285Z,8.43
2022-12-14T08:01:45.297Z,9.87
2022-12-14T08:04:16.082Z,9.50
2022-12-14T08:06:50.092Z,12.13
2022-12-14T08:09:21.856Z,9.23
2022-12-14T08:11:50.335Z,12.07
2022-12-14T08:14:21.401Z,9.60
2022-12-14T08:16:51.258Z,11.13
2022-12-14T08:19:20.584Z,11.13
2022-12-14T08:21:53.281Z,11.47
2022-12-14T08:24:21.691Z,11.60
2022-12-14T08:26:50.025Z,10.53
2022-12-14T08:29:19.058Z,10.87
2022-12-14T08:31:48.091Z,7.73
2022-12-14T08:34:22.188Z,7.90
2022-12-14T08:36:52.131Z,8.07
2022-12-14T08:39:23.261Z,8.00
2022-12-14T08:41:51.682Z,7.73
2022-12-14T08:44:19.937Z,9.17
2022-12-14T08:46:48.345Z,12.50
2022-12-14T08:49:16.664Z,9.47
2022-12-14T08:51:44.904Z,8.77
2022-12-14T08:54:14.577Z,7.90
2022-12-14T08:56:42.878Z,7.67
2022-12-14T08:59:24.647Z,5.63
2022-12-14T09:01:59.755Z,5.60
2022-12-14T09:04:28.259Z,5.17
2022-12-14T09:06:56.653Z,5.67
2022-12-14T09:09:26.942Z,6.60
2022-12-14T09:11:55.238Z,6.77
2022-12-14T09:14:23.503Z,7.93
2022-12-14T09:16:51.859Z,9.50
2022-12-14T09:19:20.158Z,8.60
2022-12-14T09:21:48.456Z,7.67
2022-12-14T09:24:16.779Z,12.03
2022-12-14T09:26:47.099Z,11.17
2022-12-14T09:29:17.262Z,12.90
2022-12-14T09:31:45.986Z,11.87
2022-12-14T09:34:15.288Z,19.00
2022-12-14T09:36:43.525Z,15.70
2022-12-14T09:39:14.988Z,16.73
2022-12-14T09:42:09.090Z,15.80
2022-12-14T09:44:48.759Z,16.17
2022-12-14T09:47:20.954Z,14.00
2022-12-14T09:49:52.743Z,17.63
2022-12-14T09:52:25.174Z,18.17
2022-12-14T09:54:55.608Z,21.90
2022-12-14T09:57:31.804Z,26.97
2022-12-14T10:00:00.244Z,32.27
2022-12-14T10:03:04.656Z,37.70
2022-12-14T10:06:00.794Z,39.30
2022-12-14T10:08:35.409Z,40.63
2022-12-14T10:11:11.606Z,44.13
2022-12-14T10:13:50.524Z,47.80
2022-12-14T10:16:29.079Z,38.40
2022-12-14T10:19:23.947Z,43.30
2022-12-14T10:21:56.543Z,47.23
2022-12-14T10:24:28.350Z,38.57
2022-12-14T10:26:57.000Z,42.37
2022-12-14T10:29:34.431Z,35.37
2022-12-14T10:32:14.872Z,33.47
2022-12-14T10:34:44.139Z,31.47
2022-12-14T10:37:24.865Z,19.33
2022-12-14T10:40:19.718Z,4.57
2022-12-14T10:43:06.239Z,2.77
2022-12-14T10:45:43.150Z,1.50
2022-12-14T10:48:37.319Z,4.00
2022-12-14T10:51:09.301Z,4.27
2022-12-14T10:53:42.508Z,4.43
2022-12-14T10:56:17.893Z,3.90
2022-12-14T10:58:46.342Z,3.47
2022-12-14T11:01:17.306Z,5.67
2022-12-14T11:03:52.264Z,3.73
2022-12-14T11:06:21.358Z,4.07
2022-12-14T11:08:50.757Z,4.33
2022-12-14T11:11:22.358Z,4.20
2022-12-14T11:13:52.516Z,4.47
2022-12-14T11:16:35.710Z,4.23
2022-12-14T11:19:06.692Z,5.07
2022-12-14T11:21:36.926Z,4.60
2022-12-14T11:24:06.382Z,5.93
2022-12-14T11:26:39.353Z,6.83
2022-12-14T11:29:17.715Z,6.90
2022-12-14T11:31:49.222Z,7.43
2022-12-14T11:34:28.432Z,6.40
2022-12-14T11:36:56.953Z,6.90
2022-12-14T11:39:26.310Z,7.50
2022-12-14T11:42:02.587Z,8.23
2022-12-14T11:44:33.796Z,9.23
2022-12-14T11:47:08.668Z,6.87
2022-12-14T11:49:44.760Z,6.13
2022-12-14T11:52:14.932Z,7.50
2022-12-14T11:54:45.969Z,6.10
2022-12-14T11:57:29.372Z,7.43
2022-12-14T12:00:00.136Z,8.37
2022-12-14T12:02:34.111Z,7.70
2022-12-14T12:05:08.800Z,6.17
2022-12-14T12:07:40.197Z,6.13
2022-12-14T12:10:18.641Z,6.93
2022-12-14T12:12:54.666Z,7.80
2022-12-14T12:15:27.457Z,6.03
2022-12-14T12:18:02.988Z,7.20
2022-12-14T12:20:36.204Z,7.63
2022-12-14T12:23:12.951Z,7.33
2022-12-14T12:25:43.867Z,6.20
2022-12-14T12:28:19.827Z,7.93
2022-12-14T12:30:52.072Z,6.37
2022-12-14T12:33:31.046Z,7.07
2022-12-14T12:36:04.115Z,9.63
2022-12-14T12:38:50.154Z,4.80
2022-12-14T12:41:35.106Z,6.27
2022-12-14T12:44:18.680Z,6.23
2022-12-14T12:47:24.005Z,4.70
2022-12-14T12:49:47.626Z,5.67
2022-12-14T12:52:22.605Z,4.23
2022-12-14T12:54:57.429Z,4.07
2022-12-14T12:57:30.675Z,4.60
2022-12-14T13:00:00.599Z,4.27
2022-12-14T13:02:34.531Z,3.00
2022-12-14T13:05:44.542Z,3.87
2022-12-14T13:08:06.841Z,3.50
2022-12-14T13:10:50.556Z,2.50
2022-12-14T13:13:33.641Z,3.00
2022-12-14T13:16:13.992Z,2.93
2022-12-14T13:19:01.953Z,4.10
2022-12-14T13:21:39.584Z,3.53
2022-12-14T13:24:17.946Z,2.93
2022-12-14T13:27:22.531Z,3.73
2022-12-14T13:30:06.307Z,4.77
2022-12-14T13:32:53.739Z,3.57
2022-12-14T13:35:44.077Z,3.10
2022-12-14T13:38:34.311Z,2.90
2022-12-14T13:41:27.703Z,5.23
2022-12-14T13:44:12.246Z,3.43
2022-12-14T13:46:41.114Z,2.20
2022-12-14T13:49:20.589Z,2.87
2022-12-14T13:51:51.829Z,2.60
2022-12-14T13:54:23.845Z,3.70
2022-12-14T13:56:52.126Z,2.50
2022-12-14T13:59:30.279Z,1.10
2022-12-14T14:02:00.939Z,0.90
2022-12-14T14:04:30.773Z,1.10
2022-12-14T14:07:51.141Z,1.30
2022-12-14T14:10:31.946Z,1.17
2022-12-14T14:13:01.319Z,1.03
2022-12-14T14:15:38.367Z,1.20
2022-12-14T14:18:20.200Z,3.53
2022-12-14T14:20:56.962Z,5.23
2022-12-14T14:23:36.907Z,4.33
2022-12-14T14:26:19.282Z,1.80
2022-12-14T14:28:51.791Z,2.77
2022-12-14T14:31:20.196Z,1.40
2022-12-14T14:33:50.662Z,1.70
2022-12-14T14:36:24.460Z,3.23
2022-12-14T14:38:56.191Z,1.53
2022-12-14T14:41:29.130Z,3.10
2022-12-14T14:44:01.359Z,2.03
2022-12-14T14:46:35.913Z,1.60
2022-12-14T14:49:05.814Z,1.53
2022-12-14T14:51:37.223Z,1.47
2022-12-14T14:57:36.514Z,2.67
2022-12-14T15:00:13.814Z,2.33
2022-12-14T15:02:43.808Z,1.77
2022-12-14T15:08:18.191Z,1.77
2022-12-14T15:10:49.663Z,1.47
2022-12-14T15:13:21.927Z,1.63
2022-12-14T15:15:53.334Z,2.10
2022-12-14T15:18:24.047Z,1.73
2022-12-14T15:20:59.352Z,1.97
2022-12-14T15:23:33.476Z,1.73
2022-12-14T15:26:04.923Z,2.07
2022-12-14T15:28:33.350Z,3.53
2022-12-14T15:31:01.761Z,6.40
2022-12-14T15:33:34.512Z,3.57
2022-12-14T15:36:09.459Z,3.00
2022-12-14T15:38:38.574Z,2.17
2022-12-14T15:41:15.451Z,2.27
2022-12-14T15:43:45.194Z,3.20
2022-12-14T15:46:18.452Z,4.03
2022-12-14T15:48:47.137Z,4.37
2022-12-14T15:51:18.670Z,2.90
2022-12-14T15:53:50.213Z,2.27
2022-12-14T15:56:28.466Z,1.57
2022-12-14T15:58:58.734Z,2.97
2022-12-14T16:01:31.774Z,2.17
2022-12-14T16:04:04.984Z,2.77
2022-12-14T16:06:39.281Z,4.00
2022-12-14T16:09:14.907Z,3.27
2022-12-14T16:11:48.260Z,3.27
2022-12-14T16:14:22.936Z,3.33
2022-12-14T16:16:51.552Z,2.97
2022-12-14T16:19:27.843Z,4.03
2022-12-14T16:22:20.895Z,4.80
2022-12-14T16:25:19.715Z,2.80
2022-12-14T16:27:51.847Z,3.83
2022-12-14T16:30:30.812Z,4.57
2022-12-14T16:33:15.356Z,5.30
2022-12-14T16:35:45.073Z,5.67
2022-12-14T16:38:15.407Z,6.67
2022-12-14T16:40:53.800Z,5.67
2022-12-14T16:43:31.018Z,9.27
2022-12-14T16:46:11.940Z,6.47
2022-12-14T16:48:43.296Z,4.70
2022-12-14T16:52:05.700Z,2.27
2022-12-14T16:54:27.825Z,2.37
2022-12-14T16:57:04.804Z,4.33
2022-12-14T16:59:41.818Z,5.37
2022-12-14T17:02:28.198Z,4.63
2022-12-14T17:04:59.693Z,3.43
2022-12-14T17:07:30.051Z,4.03
2022-12-14T17:09:58.458Z,3.93
2022-12-14T17:12:27.656Z,4.70
2022-12-14T17:14:57.312Z,4.43
2022-12-14T17:17:33.381Z,5.47
2022-12-14T17:20:02.843Z,9.63
2022-12-14T17:22:34.313Z,8.37
2022-12-14T17:25:02.762Z,8.30
2022-12-14T17:27:31.514Z,8.80
2022-12-14T17:30:01.194Z,8.40
2022-12-14T17:32:31.560Z,11.67
2022-12-14T17:35:00.873Z,9.87
2022-12-14T17:37:35.725Z,9.67
2022-12-14T17:40:05.725Z,10.40
2022-12-14T17:42:34.109Z,9.77
2022-12-14T17:45:03.891Z,8.57
2022-12-14T17:47:32.199Z,7.07
2022-12-14T17:50:00.432Z,6.70
2022-12-14T17:52:31.980Z,5.80
2022-12-14T17:55:00.708Z,5.63
2022-12-14T17:57:29.035Z,7.43
2022-12-14T18:00:11.174Z,7.83
2022-12-14T18:02:42.137Z,5.93
2022-12-14T18:05:18.821Z,7.53
2022-12-14T18:07:49.915Z,7.00
2022-12-14T18:10:19.616Z,7.17
2022-12-14T18:12:48.284Z,7.87
2022-12-14T18:15:22.913Z,8.87
2022-12-14T18:17:52.759Z,9.57
2022-12-14T18:20:23.706Z,9.00
2022-12-14T18:22:52.445Z,6.57
2022-12-14T18:25:30.337Z,7.27
2022-12-14T18:27:59.154Z,6.47
2022-12-14T18:30:28.553Z,8.90
2022-12-14T18:33:01.099Z,7.50
2022-12-14T18:35:31.061Z,9.10
2022-12-14T18:37:59.726Z,8.30
2022-12-14T18:40:30.459Z,13.97
2022-12-14T18:42:59.026Z,12.07
2022-12-14T18:45:28.861Z,13.13
2022-12-14T18:47:57.570Z,14.53
2022-12-14T18:50:27.800Z,17.00
2022-12-14T18:52:56.818Z,13.87
2022-12-14T18:55:28.292Z,13.30
2022-12-14T18:57:58.618Z,14.87
2022-12-14T19:00:30.495Z,19.27
2022-12-14T19:02:59.703Z,30.47
2022-12-14T19:05:31.648Z,22.70
2022-12-14T19:08:01.258Z,21.07
2022-12-14T19:10:32.627Z,14.43
2022-12-14T19:13:00.968Z,15.70
2022-12-14T19:15:33.526Z,17.60
2022-12-14T19:18:02.349Z,12.77
2022-12-14T19:20:32.148Z,11.73
2022-12-14T19:23:01.925Z,8.63
2022-12-14T19:25:30.284Z,13.10
2022-12-14T19:28:30.262Z,54.57
2022-12-14T19:30:47.019Z,7.27
2022-12-14T19:33:15.458Z,6.30
2022-12-14T19:35:45.212Z,6.33
2022-12-14T19:38:15.726Z,7.70
2022-12-14T19:40:46.318Z,16.03
2022-12-14T19:43:15.603Z,12.10
2022-12-14T19:45:44.707Z,16.70
2022-12-14T19:48:13.447Z,15.10
2022-12-14T19:50:41.971Z,15.63
2022-12-14T19:53:11.862Z,11.03
2022-12-14T19:55:40.428Z,12.93
2022-12-14T19:58:08.643Z,15.93
2022-12-14T20:00:36.876Z,11.27
2022-12-14T20:03:05.302Z,13.90
2022-12-14T20:05:33.756Z,14.20
2022-12-14T20:08:02.076Z,12.17
2022-12-14T20:10:31.769Z,10.23
2022-12-14T20:13:00.044Z,10.90
2022-12-14T20:15:29.388Z,11.73
2022-12-14T20:17:57.604Z,13.17
2022-12-14T20:20:26.761Z,11.35
2022-12-14T20:22:55.056Z,14.57
2022-12-14T20:25:23.387Z,17.47
2022-12-14T20:27:54.095Z,17.13
2022-12-14T20:30:22.396Z,15.23
2022-12-14T20:32:50.642Z,19.83
2022-12-14T20:35:18.992Z,12.97
2022-12-14T20:37:48.424Z,15.23
2022-12-14T20:40:16.709Z,11.73
2022-12-14T20:42:45.973Z,9.47
2022-12-14T20:45:15.720Z,8.33
2022-12-14T20:47:43.990Z,15.93
2022-12-14T20:50:12.310Z,33.00
2022-12-14T20:52:40.861Z,22.27
2022-12-14T20:55:10.049Z,29.77
2022-12-14T20:57:38.361Z,23.70
2022-12-14T21:00:07.931Z,18.73
2022-12-14T21:02:37.810Z,15.23
2022-12-14T21:05:07.002Z,18.17
2022-12-14T21:07:35.426Z,18.23
2022-12-14T21:10:03.732Z,16.37
2022-12-14T21:12:31.214Z,14.07
2022-12-14T21:14:59.560Z,17.03
2022-12-14T21:17:30.023Z,18.80
2022-12-14T21:19:59.719Z,18.80
2022-12-14T21:22:30.527Z,20.33
2022-12-14T21:25:04.364Z,41.20
2022-12-14T21:27:35.175Z,16.50
2022-12-14T21:30:03.905Z,18.53
2022-12-14T21:32:32.612Z,13.03
2022-12-14T21:35:05.789Z,14.00
2022-12-14T21:37:35.506Z,14.03
2022-12-14T21:40:06.127Z,16.03
2022-12-14T21:42:34.041Z,19.43
2022-12-14T21:45:02.749Z,16.97
2022-12-14T21:47:31.224Z,17.10
2022-12-14T21:49:59.467Z,20.27
2022-12-14T21:52:29.444Z,15.93
2022-12-14T21:54:59.860Z,22.70
2022-12-14T21:57:50.348Z,17.57
2022-12-14T22:00:19.973Z,9.87
2022-12-14T22:02:48.513Z,10.20
2022-12-14T22:05:16.982Z,13.97
2022-12-14T22:07:46.930Z,14.97
2022-12-14T22:10:21.304Z,19.83
2022-12-14T22:12:52.791Z,18.03
2022-12-14T22:15:22.112Z,28.23
2022-12-14T22:17:51.903Z,21.77
2022-12-14T22:20:20.258Z,22.03
2022-12-14T22:22:49.992Z,17.43
2022-12-14T22:25:18.344Z,20.80
2022-12-14T22:27:49.856Z,28.87
2022-12-14T22:30:18.913Z,35.43
2022-12-14T22:32:47.962Z,29.43
2022-12-14T22:35:16.464Z,30.67
2022-12-14T22:37:44.731Z,29.87
2022-12-14T22:40:14.660Z,27.57
2022-12-14T22:42:43.157Z,28.70
2022-12-14T22:49:34.514Z,41.00
2022-12-14T22:52:02.719Z,42.30
2022-12-14T22:54:31.601Z,32.17
2022-12-14T22:57:06.227Z,31.70
2022-12-14T22:59:37.528Z,25.73
2022-12-14T23:02:06.610Z,32.03
2022-12-14T23:04:35.464Z,41.83
2022-12-14T23:07:03.804Z,27.67
2022-12-14T23:09:49.173Z,39.77
2022-12-14T23:12:36.206Z,77.13
2022-12-14T23:15:22.253Z,69.03
2022-12-14T23:18:07.843Z,74.83
2022-12-14T23:20:53.546Z,33.90
2022-12-14T23:23:38.960Z,45.40
2022-12-14T23:26:24.810Z,39.90
2022-12-14T23:29:11.711Z,55.27
2022-12-14T23:31:57.643Z,136.27
2022-12-14T23:34:43.207Z,81.33
2022-12-14T23:37:29.091Z,35.13
2022-12-14T23:40:14.970Z,65.40
2022-12-14T23:43:00.741Z,41.97
2022-12-14T23:45:47.783Z,115.63
2022-12-14T23:48:33.597Z,93.93
2022-12-14T23:51:19.705Z,80.33
2022-12-14T23:54:05.319Z,95.97
2022-12-14T23:56:51.048Z,63.10
2022-12-14T23:59:36.917Z,70.43
